sensor_id;sensor_type;location;lat;lon;timestamp;temperature;humidity
21184;DHT22;18176;49.502;11.754;2023-12-28T00:02:18;3.00;99.90
21184;DHT22;18176;49.502;11.754;2023-12-28T00:06:39;3.00;99.90
21184;DHT22;18176;49.502;11.754;2023-12-28T00:11:00;2.90;99.90
21184;DHT22;18176;49.502;11.754;2023-12-28T00:15:23;2.80;99.90
21184;DHT22;18176;49.502;11.754;2023-12-28T00:19:44;2.70;99.90
21184;DHT22;18176;49.502;11.754;2023-12-28T00:24:05;2.60;99.90
21184;DHT22;18176;49.502;11.754;2023-12-28T00:28:26;2.60;99.90
21184;DHT22;18176;49.502;11.754;2023-12-28T00:32:49;2.50;99.90
21184;DHT22;18176;49.502;11.754;2023-12-28T00:37:10;2.50;99.90
21184;DHT22;18176;49.502;11.754;2023-12-28T00:41:30;2.30;99.90
21184;DHT22;18176;49.502;11.754;2023-12-28T00:45:51;2.00;99.90
21184;DHT22;18176;49.502;11.754;2023-12-28T00:50:14;1.80;99.90
21184;DHT22;18176;49.502;11.754;2023-12-28T00:54:36;1.60;99.90
21184;DHT22;18176;49.502;11.754;2023-12-28T00:58:56;1.50;99.90
21184;DHT22;18176;49.502;11.754;2023-12-28T01:03:19;1.40;99.90
21184;DHT22;18176;49.502;11.754;2023-12-28T01:07:42;1.60;99.90
21184;DHT22;18176;49.502;11.754;2023-12-28T01:12:04;1.90;99.90
21184;DHT22;18176;49.502;11.754;2023-12-28T01:16:25;2.10;99.90
21184;DHT22;18176;49.502;11.754;2023-12-28T01:20:46;2.30;99.90
21184;DHT22;18176;49.502;11.754;2023-12-28T01:25:09;2.00;99.90
21184;DHT22;18176;49.502;11.754;2023-12-28T01:29:31;2.00;99.90
21184;DHT22;18176;49.502;11.754;2023-12-28T01:33:52;1.90;99.90
21184;DHT22;18176;49.502;11.754;2023-12-28T01:38:13;1.90;99.90
21184;DHT22;18176;49.502;11.754;2023-12-28T01:42:37;1.90;99.90
21184;DHT22;18176;49.502;11.754;2023-12-28T01:46:59;1.80;99.90
21184;DHT22;18176;49.502;11.754;2023-12-28T01:51:23;1.80;99.90
21184;DHT22;18176;49.502;11.754;2023-12-28T01:55:44;1.80;99.90
21184;DHT22;18176;49.502;11.754;2023-12-28T02:00:09;1.90;99.90
21184;DHT22;18176;49.502;11.754;2023-12-28T02:04:32;1.90;99.90
21184;DHT22;18176;49.502;11.754;2023-12-28T02:08:53;1.80;99.90
21184;DHT22;18176;49.502;11.754;2023-12-28T02:13:14;1.90;99.90
21184;DHT22;18176;49.502;11.754;2023-12-28T02:17:43;2.00;99.90
21184;DHT22;18176;49.502;11.754;2023-12-28T02:22:08;1.90;99.90
21184;DHT22;18176;49.502;11.754;2023-12-28T02:26:32;1.80;99.90
21184;DHT22;18176;49.502;11.754;2023-12-28T02:30:53;1.80;99.90
21184;DHT22;18176;49.502;11.754;2023-12-28T02:35:17;1.70;99.90
21184;DHT22;18176;49.502;11.754;2023-12-28T02:39:44;1.70;99.90
21184;DHT22;18176;49.502;11.754;2023-12-28T02:44:10;1.70;99.90
21184;DHT22;18176;49.502;11.754;2023-12-28T02:48:31;1.60;99.90
21184;DHT22;18176;49.502;11.754;2023-12-28T02:52:52;1.50;99.90
21184;DHT22;18176;49.502;11.754;2023-12-28T02:57:12;1.30;99.90
21184;DHT22;18176;49.502;11.754;2023-12-28T03:01:38;1.10;99.90
21184;DHT22;18176;49.502;11.754;2023-12-28T03:05:58;1.00;99.90
21184;DHT22;18176;49.502;11.754;2023-12-28T03:10:20;0.90;99.90
21184;DHT22;18176;49.502;11.754;2023-12-28T03:14:41;0.70;99.90
21184;DHT22;18176;49.502;11.754;2023-12-28T03:19:04;0.60;99.90
21184;DHT22;18176;49.502;11.754;2023-12-28T03:23:25;0.50;99.90
21184;DHT22;18176;49.502;11.754;2023-12-28T03:27:46;0.30;99.90
21184;DHT22;18176;49.502;11.754;2023-12-28T03:32:06;0.20;99.90
21184;DHT22;18176;49.502;11.754;2023-12-28T03:36:29;0.10;99.90
21184;DHT22;18176;49.502;11.754;2023-12-28T03:40:50;0.00;99.90
21184;DHT22;18176;49.502;11.754;2023-12-28T03:45:11;-0.10;99.90
21184;DHT22;18176;49.502;11.754;2023-12-28T03:49:35;-0.20;99.90
21184;DHT22;18176;49.502;11.754;2023-12-28T03:53:59;-0.30;99.90
21184;DHT22;18176;49.502;11.754;2023-12-28T03:58:19;-0.40;99.90
21184;DHT22;18176;49.502;11.754;2023-12-28T04:02:40;-0.40;99.90
21184;DHT22;18176;49.502;11.754;2023-12-28T04:07:00;-0.50;99.90
21184;DHT22;18176;49.502;11.754;2023-12-28T04:11:27;-0.50;99.90
21184;DHT22;18176;49.502;11.754;2023-12-28T04:15:48;-0.50;99.90
21184;DHT22;18176;49.502;11.754;2023-12-28T04:20:10;-0.40;99.90
21184;DHT22;18176;49.502;11.754;2023-12-28T04:24:31;-0.30;99.90
21184;DHT22;18176;49.502;11.754;2023-12-28T04:28:54;-0.20;99.90
21184;DHT22;18176;49.502;11.754;2023-12-28T04:33:17;-0.10;99.90
21184;DHT22;18176;49.502;11.754;2023-12-28T04:37:39;-0.20;99.90
21184;DHT22;18176;49.502;11.754;2023-12-28T04:41:59;-0.20;99.90
21184;DHT22;18176;49.502;11.754;2023-12-28T04:46:23;-0.20;99.90
21184;DHT22;18176;49.502;11.754;2023-12-28T04:50:43;-0.20;99.90
21184;DHT22;18176;49.502;11.754;2023-12-28T04:55:05;-0.20;99.90
21184;DHT22;18176;49.502;11.754;2023-12-28T04:59:26;-0.20;99.90
21184;DHT22;18176;49.502;11.754;2023-12-28T05:03:49;-0.10;99.90
21184;DHT22;18176;49.502;11.754;2023-12-28T05:08:11;0.00;99.90
21184;DHT22;18176;49.502;11.754;2023-12-28T05:12:32;0.10;99.90
21184;DHT22;18176;49.502;11.754;2023-12-28T05:17:00;0.30;99.90
21184;DHT22;18176;49.502;11.754;2023-12-28T05:21:23;0.50;99.90
21184;DHT22;18176;49.502;11.754;2023-12-28T05:25:44;0.70;99.90
21184;DHT22;18176;49.502;11.754;2023-12-28T05:30:07;0.80;99.90
21184;DHT22;18176;49.502;11.754;2023-12-28T05:34:29;1.00;99.90
21184;DHT22;18176;49.502;11.754;2023-12-28T05:38:52;1.00;99.90
21184;DHT22;18176;49.502;11.754;2023-12-28T05:43:13;1.00;99.90
21184;DHT22;18176;49.502;11.754;2023-12-28T05:47:33;1.10;99.90
21184;DHT22;18176;49.502;11.754;2023-12-28T05:51:54;1.20;99.90
21184;DHT22;18176;49.502;11.754;2023-12-28T05:56:18;1.30;99.90
21184;DHT22;18176;49.502;11.754;2023-12-28T06:00:38;1.40;99.90
21184;DHT22;18176;49.502;11.754;2023-12-28T06:05:00;1.50;99.90
21184;DHT22;18176;49.502;11.754;2023-12-28T06:09:21;1.60;99.90
21184;DHT22;18176;49.502;11.754;2023-12-28T06:13:47;1.60;99.90
21184;DHT22;18176;49.502;11.754;2023-12-28T06:18:08;1.60;99.90
21184;DHT22;18176;49.502;11.754;2023-12-28T06:22:29;1.70;99.90
21184;DHT22;18176;49.502;11.754;2023-12-28T06:26:49;1.80;99.90
21184;DHT22;18176;49.502;11.754;2023-12-28T06:31:12;1.80;99.90
21184;DHT22;18176;49.502;11.754;2023-12-28T06:35:33;1.90;99.90
21184;DHT22;18176;49.502;11.754;2023-12-28T06:39:54;2.00;99.90
21184;DHT22;18176;49.502;11.754;2023-12-28T06:44:15;2.00;99.90
21184;DHT22;18176;49.502;11.754;2023-12-28T06:48:38;2.00;99.90
21184;DHT22;18176;49.502;11.754;2023-12-28T06:53:01;2.00;99.90
21184;DHT22;18176;49.502;11.754;2023-12-28T06:57:22;2.00;99.90
21184;DHT22;18176;49.502;11.754;2023-12-28T07:01:42;2.10;99.90
21184;DHT22;18176;49.502;11.754;2023-12-28T07:06:08;2.10;99.90
21184;DHT22;18176;49.502;11.754;2023-12-28T07:10:29;2.20;99.90
21184;DHT22;18176;49.502;11.754;2023-12-28T07:14:50;2.30;99.90
21184;DHT22;18176;49.502;11.754;2023-12-28T07:19:10;2.30;99.90
21184;DHT22;18176;49.502;11.754;2023-12-28T07:23:34;2.30;99.90
21184;DHT22;18176;49.502;11.754;2023-12-28T07:27:54;2.40;99.90
21184;DHT22;18176;49.502;11.754;2023-12-28T07:32:15;2.50;99.90
21184;DHT22;18176;49.502;11.754;2023-12-28T07:36:37;2.50;99.90
21184;DHT22;18176;49.502;11.754;2023-12-28T07:41:03;2.60;99.90
21184;DHT22;18176;49.502;11.754;2023-12-28T07:45:24;2.70;99.90
21184;DHT22;18176;49.502;11.754;2023-12-28T07:49:45;2.70;99.90
21184;DHT22;18176;49.502;11.754;2023-12-28T07:54:06;2.80;99.90
21184;DHT22;18176;49.502;11.754;2023-12-28T07:58:29;2.70;99.90
21184;DHT22;18176;49.502;11.754;2023-12-28T08:02:50;2.80;99.90
21184;DHT22;18176;49.502;11.754;2023-12-28T08:07:10;2.80;99.90
21184;DHT22;18176;49.502;11.754;2023-12-28T08:11:31;2.90;99.90
21184;DHT22;18176;49.502;11.754;2023-12-28T08:15:54;3.00;99.90
21184;DHT22;18176;49.502;11.754;2023-12-28T08:20:15;3.10;99.90
21184;DHT22;18176;49.502;11.754;2023-12-28T08:24:35;3.10;99.90
21184;DHT22;18176;49.502;11.754;2023-12-28T08:28:56;3.20;99.90
21184;DHT22;18176;49.502;11.754;2023-12-28T08:33:19;3.30;99.90
21184;DHT22;18176;49.502;11.754;2023-12-28T08:37:40;3.40;99.90
21184;DHT22;18176;49.502;11.754;2023-12-28T08:42:03;3.40;99.90
21184;DHT22;18176;49.502;11.754;2023-12-28T08:46:24;3.50;99.90
21184;DHT22;18176;49.502;11.754;2023-12-28T08:50:49;3.60;99.90
21184;DHT22;18176;49.502;11.754;2023-12-28T08:55:09;3.70;99.90
21184;DHT22;18176;49.502;11.754;2023-12-28T08:59:30;3.70;99.90
21184;DHT22;18176;49.502;11.754;2023-12-28T09:03:52;3.90;99.90
21184;DHT22;18176;49.502;11.754;2023-12-28T09:08:17;3.90;99.90
21184;DHT22;18176;49.502;11.754;2023-12-28T09:12:38;4.00;99.90
21184;DHT22;18176;49.502;11.754;2023-12-28T09:17:00;3.90;99.90
21184;DHT22;18176;49.502;11.754;2023-12-28T09:21:21;3.90;99.90
21184;DHT22;18176;49.502;11.754;2023-12-28T09:25:45;3.80;99.90
21184;DHT22;18176;49.502;11.754;2023-12-28T09:30:08;4.00;99.90
21184;DHT22;18176;49.502;11.754;2023-12-28T09:34:29;4.20;99.90
21184;DHT22;18176;49.502;11.754;2023-12-28T09:38:50;4.40;99.90
21184;DHT22;18176;49.502;11.754;2023-12-28T09:43:21;4.40;99.90
21184;DHT22;18176;49.502;11.754;2023-12-28T09:47:44;4.60;99.90
21184;DHT22;18176;49.502;11.754;2023-12-28T09:52:08;4.70;99.90
21184;DHT22;18176;49.502;11.754;2023-12-28T09:56:29;4.70;99.90
21184;DHT22;18176;49.502;11.754;2023-12-28T10:00:55;4.90;99.90
21184;DHT22;18176;49.502;11.754;2023-12-28T10:05:16;4.90;99.90
21184;DHT22;18176;49.502;11.754;2023-12-28T10:09:37;4.90;99.90
21184;DHT22;18176;49.502;11.754;2023-12-28T10:13:59;4.90;99.90
21184;DHT22;18176;49.502;11.754;2023-12-28T10:18:23;5.00;99.90
21184;DHT22;18176;49.502;11.754;2023-12-28T10:22:44;5.00;99.90
21184;DHT22;18176;49.502;11.754;2023-12-28T10:27:05;5.00;99.90
21184;DHT22;18176;49.502;11.754;2023-12-28T10:31:26;5.00;99.90
21184;DHT22;18176;49.502;11.754;2023-12-28T10:35:50;5.00;99.90
21184;DHT22;18176;49.502;11.754;2023-12-28T10:40:13;5.10;99.90
21184;DHT22;18176;49.502;11.754;2023-12-28T10:44:40;5.40;99.90
21184;DHT22;18176;49.502;11.754;2023-12-28T10:49:08;5.40;99.90
21184;DHT22;18176;49.502;11.754;2023-12-28T10:53:37;5.50;99.90
21184;DHT22;18176;49.502;11.754;2023-12-28T10:58:10;5.50;99.90
21184;DHT22;18176;49.502;11.754;2023-12-28T11:02:38;5.60;99.90
21184;DHT22;18176;49.502;11.754;2023-12-28T11:07:03;5.60;99.90
21184;DHT22;18176;49.502;11.754;2023-12-28T11:11:29;5.70;99.90
21184;DHT22;18176;49.502;11.754;2023-12-28T11:15:51;5.90;99.90
21184;DHT22;18176;49.502;11.754;2023-12-28T11:20:13;6.00;99.90
21184;DHT22;18176;49.502;11.754;2023-12-28T11:24:34;6.20;99.90
21184;DHT22;18176;49.502;11.754;2023-12-28T11:29:03;6.40;99.90
21184;DHT22;18176;49.502;11.754;2023-12-28T11:33:30;6.50;99.90
21184;DHT22;18176;49.502;11.754;2023-12-28T11:37:52;6.60;99.90
21184;DHT22;18176;49.502;11.754;2023-12-28T11:42:19;6.60;99.90
21184;DHT22;18176;49.502;11.754;2023-12-28T11:46:44;6.50;99.90
21184;DHT22;18176;49.502;11.754;2023-12-28T11:51:05;6.50;99.90
21184;DHT22;18176;49.502;11.754;2023-12-28T11:55:25;6.50;99.90
21184;DHT22;18176;49.502;11.754;2023-12-28T11:59:51;6.40;99.90
21184;DHT22;18176;49.502;11.754;2023-12-28T12:04:16;6.40;99.90
21184;DHT22;18176;49.502;11.754;2023-12-28T12:08:37;6.40;99.90
21184;DHT22;18176;49.502;11.754;2023-12-28T12:12:58;6.40;99.90
21184;DHT22;18176;49.502;11.754;2023-12-28T12:17:20;6.40;99.90
21184;DHT22;18176;49.502;11.754;2023-12-28T12:21:44;6.40;99.90
21184;DHT22;18176;49.502;11.754;2023-12-28T12:26:07;6.40;99.90
21184;DHT22;18176;49.502;11.754;2023-12-28T12:30:28;6.40;99.90
21184;DHT22;18176;49.502;11.754;2023-12-28T12:34:49;6.30;99.90
21184;DHT22;18176;49.502;11.754;2023-12-28T12:39:14;6.30;99.90
21184;DHT22;18176;49.502;11.754;2023-12-28T12:43:35;6.20;99.90
21184;DHT22;18176;49.502;11.754;2023-12-28T12:47:57;6.10;99.90
21184;DHT22;18176;49.502;11.754;2023-12-28T12:52:19;6.00;99.90
21184;DHT22;18176;49.502;11.754;2023-12-28T12:56:45;5.90;99.90
21184;DHT22;18176;49.502;11.754;2023-12-28T13:01:10;5.80;99.90
21184;DHT22;18176;49.502;11.754;2023-12-28T13:05:31;5.80;99.90
21184;DHT22;18176;49.502;11.754;2023-12-28T13:09:52;5.80;99.90
21184;DHT22;18176;49.502;11.754;2023-12-28T13:14:15;5.90;99.90
21184;DHT22;18176;49.502;11.754;2023-12-28T13:18:36;5.90;99.90
21184;DHT22;18176;49.502;11.754;2023-12-28T13:22:56;5.90;99.90
21184;DHT22;18176;49.502;11.754;2023-12-28T13:27:20;5.90;99.90
21184;DHT22;18176;49.502;11.754;2023-12-28T13:31:44;6.00;99.90
21184;DHT22;18176;49.502;11.754;2023-12-28T13:36:07;6.00;99.90
21184;DHT22;18176;49.502;11.754;2023-12-28T13:40:28;6.10;99.90
21184;DHT22;18176;49.502;11.754;2023-12-28T13:44:48;6.10;99.90
21184;DHT22;18176;49.502;11.754;2023-12-28T13:49:12;6.20;99.90
21184;DHT22;18176;49.502;11.754;2023-12-28T13:53:32;6.20;99.90
21184;DHT22;18176;49.502;11.754;2023-12-28T13:57:58;6.30;99.90
21184;DHT22;18176;49.502;11.754;2023-12-28T14:02:20;6.40;99.90
21184;DHT22;18176;49.502;11.754;2023-12-28T14:06:44;6.50;99.90
21184;DHT22;18176;49.502;11.754;2023-12-28T14:11:04;6.60;99.90
21184;DHT22;18176;49.502;11.754;2023-12-28T14:15:25;6.70;99.90
21184;DHT22;18176;49.502;11.754;2023-12-28T14:19:46;6.70;99.90
21184;DHT22;18176;49.502;11.754;2023-12-28T14:24:11;6.60;99.90
21184;DHT22;18176;49.502;11.754;2023-12-28T14:28:33;6.60;99.90
21184;DHT22;18176;49.502;11.754;2023-12-28T14:32:54;6.60;99.90
21184;DHT22;18176;49.502;11.754;2023-12-28T14:37:16;6.50;99.90
21184;DHT22;18176;49.502;11.754;2023-12-28T14:41:39;6.50;99.90
21184;DHT22;18176;49.502;11.754;2023-12-28T14:46:01;6.40;99.90
21184;DHT22;18176;49.502;11.754;2023-12-28T14:50:22;6.40;99.90
21184;DHT22;18176;49.502;11.754;2023-12-28T14:54:43;6.30;99.90
21184;DHT22;18176;49.502;11.754;2023-12-28T14:59:06;6.30;99.90
21184;DHT22;18176;49.502;11.754;2023-12-28T15:03:26;6.20;99.90
21184;DHT22;18176;49.502;11.754;2023-12-28T15:07:47;6.20;99.90
21184;DHT22;18176;49.502;11.754;2023-12-28T15:12:09;6.20;99.90
21184;DHT22;18176;49.502;11.754;2023-12-28T15:16:34;6.10;99.90
21184;DHT22;18176;49.502;11.754;2023-12-28T15:20:56;6.00;99.90
21184;DHT22;18176;49.502;11.754;2023-12-28T15:25:17;6.00;99.90
21184;DHT22;18176;49.502;11.754;2023-12-28T15:29:38;6.00;99.90
21184;DHT22;18176;49.502;11.754;2023-12-28T15:34:02;6.00;99.90
21184;DHT22;18176;49.502;11.754;2023-12-28T15:38:23;5.90;99.90
21184;DHT22;18176;49.502;11.754;2023-12-28T15:42:43;5.90;99.90
21184;DHT22;18176;49.502;11.754;2023-12-28T15:47:06;6.00;99.90
21184;DHT22;18176;49.502;11.754;2023-12-28T15:51:29;6.00;99.90
21184;DHT22;18176;49.502;11.754;2023-12-28T15:55:50;6.00;99.90
21184;DHT22;18176;49.502;11.754;2023-12-28T16:00:25;6.00;99.90
21184;DHT22;18176;49.502;11.754;2023-12-28T16:04:46;6.00;99.90
21184;DHT22;18176;49.502;11.754;2023-12-28T16:09:09;6.00;99.90
21184;DHT22;18176;49.502;11.754;2023-12-28T16:13:30;6.00;99.90
21184;DHT22;18176;49.502;11.754;2023-12-28T16:17:51;6.00;99.90
21184;DHT22;18176;49.502;11.754;2023-12-28T16:22:15;6.10;99.90
21184;DHT22;18176;49.502;11.754;2023-12-28T16:26:40;6.20;99.90
21184;DHT22;18176;49.502;11.754;2023-12-28T16:31:02;6.30;99.90
21184;DHT22;18176;49.502;11.754;2023-12-28T16:35:23;6.30;99.90
21184;DHT22;18176;49.502;11.754;2023-12-28T16:39:43;6.30;99.90
21184;DHT22;18176;49.502;11.754;2023-12-28T16:44:07;6.30;99.90
21184;DHT22;18176;49.502;11.754;2023-12-28T16:48:27;6.30;99.90
21184;DHT22;18176;49.502;11.754;2023-12-28T16:52:48;6.40;99.90
21184;DHT22;18176;49.502;11.754;2023-12-28T16:57:10;6.40;99.90
21184;DHT22;18176;49.502;11.754;2023-12-28T17:01:33;6.30;99.90
21184;DHT22;18176;49.502;11.754;2023-12-28T17:05:54;6.40;99.90
21184;DHT22;18176;49.502;11.754;2023-12-28T17:10:16;6.30;99.90
21184;DHT22;18176;49.502;11.754;2023-12-28T17:14:38;6.30;99.90
21184;DHT22;18176;49.502;11.754;2023-12-28T17:19:02;6.20;99.90
21184;DHT22;18176;49.502;11.754;2023-12-28T17:23:26;6.20;99.90
21184;DHT22;18176;49.502;11.754;2023-12-28T17:27:56;6.20;99.90
21184;DHT22;18176;49.502;11.754;2023-12-28T17:32:21;6.20;99.90
21184;DHT22;18176;49.502;11.754;2023-12-28T17:36:45;6.20;99.90
21184;DHT22;18176;49.502;11.754;2023-12-28T17:41:10;6.20;99.90
21184;DHT22;18176;49.502;11.754;2023-12-28T17:45:42;6.20;99.90
21184;DHT22;18176;49.502;11.754;2023-12-28T17:50:17;6.20;99.90
21184;DHT22;18176;49.502;11.754;2023-12-28T17:54:42;6.10;99.90
21184;DHT22;18176;49.502;11.754;2023-12-28T17:59:03;6.00;99.90
21184;DHT22;18176;49.502;11.754;2023-12-28T18:03:23;6.00;99.90
21184;DHT22;18176;49.502;11.754;2023-12-28T18:07:44;6.10;99.90
21184;DHT22;18176;49.502;11.754;2023-12-28T18:12:08;6.10;99.90
21184;DHT22;18176;49.502;11.754;2023-12-28T18:16:29;6.10;99.90
21184;DHT22;18176;49.502;11.754;2023-12-28T18:20:49;6.20;99.90
21184;DHT22;18176;49.502;11.754;2023-12-28T18:25:10;6.10;99.90
21184;DHT22;18176;49.502;11.754;2023-12-28T18:29:33;6.10;99.90
21184;DHT22;18176;49.502;11.754;2023-12-28T18:33:54;6.00;99.90
21184;DHT22;18176;49.502;11.754;2023-12-28T18:38:16;6.00;99.90
21184;DHT22;18176;49.502;11.754;2023-12-28T18:42:38;6.00;99.90
21184;DHT22;18176;49.502;11.754;2023-12-28T18:47:01;6.10;99.90
21184;DHT22;18176;49.502;11.754;2023-12-28T18:51:22;6.10;99.90
21184;DHT22;18176;49.502;11.754;2023-12-28T18:55:43;6.00;99.90
21184;DHT22;18176;49.502;11.754;2023-12-28T19:00:05;6.00;99.90
21184;DHT22;18176;49.502;11.754;2023-12-28T19:04:30;6.00;99.90
21184;DHT22;18176;49.502;11.754;2023-12-28T19:08:51;6.00;99.90
21184;DHT22;18176;49.502;11.754;2023-12-28T19:13:13;5.90;99.90
21184;DHT22;18176;49.502;11.754;2023-12-28T19:17:34;5.80;99.90
21184;DHT22;18176;49.502;11.754;2023-12-28T19:21:58;5.70;99.90
21184;DHT22;18176;49.502;11.754;2023-12-28T19:26:19;5.70;99.90
21184;DHT22;18176;49.502;11.754;2023-12-28T19:30:39;5.70;99.90
21184;DHT22;18176;49.502;11.754;2023-12-28T19:35:01;5.70;99.90
21184;DHT22;18176;49.502;11.754;2023-12-28T19:39:25;5.80;99.90
21184;DHT22;18176;49.502;11.754;2023-12-28T19:43:46;5.80;99.90
21184;DHT22;18176;49.502;11.754;2023-12-28T19:48:09;5.90;99.90
21184;DHT22;18176;49.502;11.754;2023-12-28T19:52:29;5.90;99.90
21184;DHT22;18176;49.502;11.754;2023-12-28T19:56:53;6.00;99.90
21184;DHT22;18176;49.502;11.754;2023-12-28T20:01:13;6.00;99.90
21184;DHT22;18176;49.502;11.754;2023-12-28T20:05:34;6.00;99.90
21184;DHT22;18176;49.502;11.754;2023-12-28T20:09:55;6.10;99.90
21184;DHT22;18176;49.502;11.754;2023-12-28T20:14:18;6.00;99.90
21184;DHT22;18176;49.502;11.754;2023-12-28T20:18:39;6.00;99.90
21184;DHT22;18176;49.502;11.754;2023-12-28T20:23:00;6.00;99.90
21184;DHT22;18176;49.502;11.754;2023-12-28T20:27:21;6.00;99.90
21184;DHT22;18176;49.502;11.754;2023-12-28T20:31:44;6.10;99.90
21184;DHT22;18176;49.502;11.754;2023-12-28T20:36:06;6.10;99.90
21184;DHT22;18176;49.502;11.754;2023-12-28T20:40:27;6.10;99.90
21184;DHT22;18176;49.502;11.754;2023-12-28T20:44:47;6.10;99.90
21184;DHT22;18176;49.502;11.754;2023-12-28T20:49:10;6.20;99.90
21184;DHT22;18176;49.502;11.754;2023-12-28T20:53:32;6.20;99.90
21184;DHT22;18176;49.502;11.754;2023-12-28T20:57:53;6.20;99.90
21184;DHT22;18176;49.502;11.754;2023-12-28T21:02:14;6.20;99.90
21184;DHT22;18176;49.502;11.754;2023-12-28T21:06:37;6.30;99.90
21184;DHT22;18176;49.502;11.754;2023-12-28T21:10:58;6.40;99.90
21184;DHT22;18176;49.502;11.754;2023-12-28T21:15:19;6.40;99.90
21184;DHT22;18176;49.502;11.754;2023-12-28T21:19:39;6.50;99.90
21184;DHT22;18176;49.502;11.754;2023-12-28T21:24:07;6.60;99.90
21184;DHT22;18176;49.502;11.754;2023-12-28T21:28:27;6.70;99.90
21184;DHT22;18176;49.502;11.754;2023-12-28T21:32:48;6.80;99.90
21184;DHT22;18176;49.502;11.754;2023-12-28T21:37:09;6.80;99.90
21184;DHT22;18176;49.502;11.754;2023-12-28T21:41:32;6.90;99.90
21184;DHT22;18176;49.502;11.754;2023-12-28T21:45:53;6.90;99.90
21184;DHT22;18176;49.502;11.754;2023-12-28T21:50:13;7.00;99.90
21184;DHT22;18176;49.502;11.754;2023-12-28T21:54:34;7.10;99.90
21184;DHT22;18176;49.502;11.754;2023-12-28T21:58:58;7.10;99.90
21184;DHT22;18176;49.502;11.754;2023-12-28T22:03:18;7.20;99.90
21184;DHT22;18176;49.502;11.754;2023-12-28T22:07:39;7.20;99.90
21184;DHT22;18176;49.502;11.754;2023-12-28T22:12:00;7.30;99.90
21184;DHT22;18176;49.502;11.754;2023-12-28T22:16:23;7.30;99.90
21184;DHT22;18176;49.502;11.754;2023-12-28T22:20:44;7.30;99.90
21184;DHT22;18176;49.502;11.754;2023-12-28T22:25:05;7.40;99.90
21184;DHT22;18176;49.502;11.754;2023-12-28T22:29:27;7.60;99.90
21184;DHT22;18176;49.502;11.754;2023-12-28T22:33:50;7.70;99.90
21184;DHT22;18176;49.502;11.754;2023-12-28T22:38:11;7.80;99.90
21184;DHT22;18176;49.502;11.754;2023-12-28T22:42:32;8.00;99.90
21184;DHT22;18176;49.502;11.754;2023-12-28T22:46:53;8.00;99.90
21184;DHT22;18176;49.502;11.754;2023-12-28T22:51:16;7.90;99.90
21184;DHT22;18176;49.502;11.754;2023-12-28T22:55:37;7.80;99.90
21184;DHT22;18176;49.502;11.754;2023-12-28T22:59:58;7.90;99.90
21184;DHT22;18176;49.502;11.754;2023-12-28T23:04:22;8.00;99.90
21184;DHT22;18176;49.502;11.754;2023-12-28T23:08:45;8.00;99.90
21184;DHT22;18176;49.502;11.754;2023-12-28T23:13:06;8.00;99.90
21184;DHT22;18176;49.502;11.754;2023-12-28T23:17:27;8.00;99.90
21184;DHT22;18176;49.502;11.754;2023-12-28T23:21:48;8.10;99.90
21184;DHT22;18176;49.502;11.754;2023-12-28T23:26:18;8.10;99.90
21184;DHT22;18176;49.502;11.754;2023-12-28T23:30:39;8.20;99.90
21184;DHT22;18176;49.502;11.754;2023-12-28T23:35:01;8.20;99.90
21184;DHT22;18176;49.502;11.754;2023-12-28T23:39:21;8.20;99.90
21184;DHT22;18176;49.502;11.754;2023-12-28T23:43:46;8.20;99.90
21184;DHT22;18176;49.502;11.754;2023-12-28T23:48:06;8.30;99.90
21184;DHT22;18176;49.502;11.754;2023-12-28T23:52:27;8.30;99.90
21184;DHT22;18176;49.502;11.754;2023-12-28T23:56:48;8.30;99.90
